Time;durP1;ratioP1;P1;durP2;ratioP2;P2;SDS_P1;SDS_P2;PMS_P1;PMS_P2;Temp;Humidity;BMP_temperature;BMP_pressure;BME280_temperature;BME280_humidity;BME280_pressure;Samples;Min_cycle;Max_cycle;Signal;HPM_P1;HPM_P2
2022/12/30 00:01:18;;;;;;;;;;;;;;;9.22;46.94;99812.34;4362480;32;35091;-71
2022/12/30 00:03:45;;;;;;;;;;;;;;;9.07;47.38;99819.56;4358782;32;35379;-72
2022/12/30 00:06:16;;;;;;;;;;;;;;;9.15;47.51;99820.84;4358190;32;34408;-73
2022/12/30 00:08:47;;;;;;;;;;;;;;;8.85;48.30;99809.44;4360092;32;34850;-69
2022/12/30 00:11:19;;;;;;;;;;;;;;;9.18;47.45;99815.28;4359952;32;34342;-69
2022/12/30 00:33:50;;;;;;;;;;;;;;;8.78;49.18;99807.31;4357961;32;34013;-70
2022/12/30 00:36:17;;;;;;;;;;;;;;;8.71;49.50;99809.53;4358131;32;35854;-68
2022/12/30 00:38:44;;;;;;;;;;;;;;;8.83;48.86;99810.53;4342293;32;33301;-69
2022/12/30 00:43:58;;;;;;;;;;;;;;;9.47;46.91;99805.28;4340379;33;35030;-70
2022/12/30 00:46:25;;;;;;;;;;;;;;;9.31;47.38;99821.53;4346653;32;34350;-68
2022/12/30 00:57:11;;;;;;;;;;;;;;;9.50;46.86;99822.00;4343681;32;33957;-72
2022/12/30 00:59:39;;;;;;;;;;;;;;;9.55;46.78;99819.84;4343002;32;33548;-70
2022/12/30 01:02:06;;;;;;;;;;;;;;;9.66;46.64;99818.22;4350585;32;35268;-72
2022/12/30 01:04:34;;;;;;;;;;;;;;;9.56;46.93;99815.34;4346462;33;33139;-70
2022/12/30 01:07:01;;;;;;;;;;;;;;;9.51;46.96;99820.16;4344390;32;35136;-72
2022/12/30 01:09:28;;;;;;;;;;;;;;;9.61;46.59;99807.88;4345688;32;34394;-69
2022/12/30 01:12:08;;;;;;;;;;;;;;;9.63;46.73;99811.31;4347484;32;35626;-70
2022/12/30 01:14:39;;;;;;;;;;;;;;;9.46;47.41;99812.44;4335113;32;34233;-72
2022/12/30 01:17:07;;;;;;;;;;;;;;;9.43;47.61;99807.31;4340475;32;34552;-71
2022/12/30 01:19:35;;;;;;;;;;;;;;;9.73;46.55;99798.16;4343033;32;34630;-73
2022/12/30 01:22:02;;;;;;;;;;;;;;;9.72;46.67;99797.28;4344687;32;34455;-75
2022/12/30 01:24:30;;;;;;;;;;;;;;;9.54;47.44;99790.56;4345645;32;34438;-70
2022/12/30 01:26:57;;;;;;;;;;;;;;;9.54;47.60;99790.56;4346139;32;34222;-71
2022/12/30 01:29:26;;;;;;;;;;;;;;;9.75;46.87;99785.50;4346777;33;33980;-67
2022/12/30 01:31:54;;;;;;;;;;;;;;;9.82;46.71;99786.78;4345798;32;34950;-69
2022/12/30 01:34:22;;;;;;;;;;;;;;;9.79;46.83;99784.31;4338767;32;34358;-69
2022/12/30 01:36:49;;;;;;;;;;;;;;;9.82;46.94;99786.78;4346685;32;33987;-69
2022/12/30 01:39:17;;;;;;;;;;;;;;;9.71;47.14;99792.91;4358877;32;34869;-70
2022/12/30 01:41:44;;;;;;;;;;;;;;;9.81;46.87;99785.09;4356893;32;33932;-69
2022/12/30 01:44:30;;;;;;;;;;;;;;;9.44;48.23;99779.66;4351874;32;35314;-70
2022/12/30 01:46:58;;;;;;;;;;;;;;;9.63;47.80;99786.38;4360002;32;35330;-70
2022/12/30 01:49:25;;;;;;;;;;;;;;;9.62;47.72;99769.50;4359406;32;33471;-71
2022/12/30 01:51:52;;;;;;;;;;;;;;;9.85;47.14;99777.69;4358758;32;35167;-69
2022/12/30 01:54:20;;;;;;;;;;;;;;;9.44;48.30;99782.34;4359958;32;33958;-69
2022/12/30 01:56:47;;;;;;;;;;;;;;;9.97;46.64;99776.81;4359714;32;34214;-70
2022/12/30 01:59:15;;;;;;;;;;;;;;;9.87;46.90;99773.94;4343283;32;33357;-69
2022/12/30 02:01:43;;;;;;;;;;;;;;;9.48;47.86;99765.13;4359444;32;34189;-70
2022/12/30 02:04:12;;;;;;;;;;;;;;;9.78;47.28;99763.91;4341890;32;36372;-67
2022/12/30 02:06:58;;;;;;;;;;;;;;;9.90;46.80;99751.50;4350816;32;34132;-71
2022/12/30 02:09:26;;;;;;;;;;;;;;;9.86;46.95;99753.53;4348452;32;33350;-68
2022/12/30 02:11:53;;;;;;;;;;;;;;;9.92;46.90;99752.22;4350470;32;33971;-68
2022/12/30 02:14:20;;;;;;;;;;;;;;;10.09;46.41;99759.06;4357787;32;34377;-71
2022/12/30 02:16:59;;;;;;;;;;;;;;;9.87;47.04;99754.38;4356157;32;34008;-71
2022/12/30 02:19:45;;;;;;;;;;;;;;;9.93;46.97;99754.81;4352198;32;33547;-71
2022/12/30 02:22:15;;;;;;;;;;;;;;;9.99;46.98;99758.88;4357791;32;34128;-69
2022/12/30 02:24:45;;;;;;;;;;;;;;;10.14;46.45;99759.56;4348485;32;33754;-67
2022/12/30 02:27:16;;;;;;;;;;;;;;;9.91;47.18;99747.84;4360365;32;34234;-69
2022/12/30 02:29:53;;;;;;;;;;;;;;;9.97;47.22;99750.09;4361977;32;33663;-70
2022/12/30 02:32:24;;;;;;;;;;;;;;;9.97;47.49;99744.75;4360768;32;32568;-71
2022/12/30 02:35:05;;;;;;;;;;;;;;;9.94;47.64;99748.47;4351184;32;32997;-69
2022/12/30 02:37:34;;;;;;;;;;;;;;;10.00;47.59;99741.84;4350674;32;34471;-67
2022/12/30 02:40:05;;;;;;;;;;;;;;;9.61;48.69;99749.09;4353628;32;34490;-68
2022/12/30 02:45:20;;;;;;;;;;;;;;;9.53;49.59;99749.63;4356985;32;34547;-69
2022/12/30 02:47:52;;;;;;;;;;;;;;;9.81;48.85;99753.00;4348190;32;35392;-72
2022/12/30 02:53:06;;;;;;;;;;;;;;;9.92;48.89;99753.09;4357288;32;34974;-69
2022/12/30 02:55:33;;;;;;;;;;;;;;;10.06;48.58;99745.91;4353431;32;33214;-72
2022/12/30 02:58:01;;;;;;;;;;;;;;;9.22;51.32;99750.91;4356731;32;34280;-73
2022/12/30 03:06:45;;;;;;;;;;;;;;;8.73;53.51;99738.25;4329505;33;33328;-68
2022/12/30 03:09:30;;;;;;;;;;;;;;;9.53;51.08;99749.63;4341613;33;32047;-69
2022/12/30 03:12:01;;;;;;;;;;;;;;;9.48;51.56;99750.91;4348369;32;33417;-70
2022/12/30 03:14:39;;;;;;;;;;;;;;;9.75;50.63;99750.75;4352599;32;34464;-67
2022/12/30 03:17:08;;;;;;;;;;;;;;;9.56;51.29;99751.22;4357475;32;35436;-68
2022/12/30 03:19:37;;;;;;;;;;;;;;;8.97;52.68;99740.19;4357171;32;35033;-67
2022/12/30 03:22:05;;;;;;;;;;;;;;;9.33;53.20;99742.13;4346123;32;33435;-70
2022/12/30 03:27:20;;;;;;;;;;;;;;;9.07;52.77;99736.78;4349789;32;34528;-66
2022/12/30 03:29:49;;;;;;;;;;;;;;;9.41;51.89;99739.81;4352996;32;34345;-66
2022/12/30 03:32:16;;;;;;;;;;;;;;;9.59;51.52;99737.62;4337044;32;33494;-66
2022/12/30 03:34:44;;;;;;;;;;;;;;;9.68;51.62;99738.81;4357310;32;33294;-69
2022/12/30 03:37:14;;;;;;;;;;;;;;;9.11;53.07;99740.09;4347029;32;34014;-66
2022/12/30 03:39:42;;;;;;;;;;;;;;;8.66;55.02;99739.59;4353631;32;33609;-66
2022/12/30 03:42:09;;;;;;;;;;;;;;;8.29;56.63;99741.16;4350494;32;34302;-70
2022/12/30 03:44:39;;;;;;;;;;;;;;;7.91;58.34;99736.47;4342994;32;35351;-66
2022/12/30 03:47:10;;;;;;;;;;;;;;;9.06;54.30;99736.91;4357000;32;33794;-69
2022/12/30 03:49:38;;;;;;;;;;;;;;;7.60;59.64;99735.75;4350151;32;34199;-66
2022/12/30 03:52:05;;;;;;;;;;;;;;;7.18;60.71;99740.09;4345889;32;34171;-67
2022/12/30 03:54:32;;;;;;;;;;;;;;;6.57;63.57;99740.25;4357175;32;35708;-68
2022/12/30 03:57:00;;;;;;;;;;;;;;;6.67;62.12;99744.94;4352213;32;35297;-69
2022/12/30 03:59:27;;;;;;;;;;;;;;;7.05;62.30;99747.13;4354530;32;34875;-67
2022/12/30 04:01:54;;;;;;;;;;;;;;;8.23;58.17;99738.88;4349673;32;34343;-68
2022/12/30 04:04:22;;;;;;;;;;;;;;;8.13;58.02;99730.62;4348632;32;33930;-67
2022/12/30 04:06:49;;;;;;;;;;;;;;;7.67;59.30;99738.88;4344732;32;35266;-66
2022/12/30 04:09:16;;;;;;;;;;;;;;;7.02;61.82;99739.31;4348983;32;34889;-68
2022/12/30 04:11:43;;;;;;;;;;;;;;;7.84;59.56;99746.69;4347446;32;34714;-68
2022/12/30 04:14:11;;;;;;;;;;;;;;;8.38;57.33;99737.91;4349947;32;33867;-68
2022/12/30 04:16:38;;;;;;;;;;;;;;;7.92;59.09;99744.38;4356425;32;33142;-66
2022/12/30 04:19:05;;;;;;;;;;;;;;;8.39;57.20;99751.13;4355394;32;33265;-67
2022/12/30 04:21:33;;;;;;;;;;;;;;;8.42;57.40;99749.25;4352148;32;33845;-68
2022/12/30 04:24:00;;;;;;;;;;;;;;;7.86;59.26;99752.75;4355789;32;32797;-68
2022/12/30 04:26:27;;;;;;;;;;;;;;;8.59;57.01;99752.47;4350710;32;33078;-66
2022/12/30 04:28:54;;;;;;;;;;;;;;;7.58;59.38;99750.97;4357424;32;35336;-67
2022/12/30 04:31:22;;;;;;;;;;;;;;;8.05;58.06;99746.25;4350363;32;33196;-67
2022/12/30 04:33:50;;;;;;;;;;;;;;;8.62;57.05;99752.28;4345442;32;34865;-66
2022/12/30 04:36:17;;;;;;;;;;;;;;;8.99;55.51;99744.47;4353995;32;35281;-66
2022/12/30 04:38:45;;;;;;;;;;;;;;;9.31;54.55;99742.25;4356424;32;35258;-67
2022/12/30 04:41:13;;;;;;;;;;;;;;;8.87;56.09;99750.66;4344094;32;33418;-68
2022/12/30 04:43:40;;;;;;;;;;;;;;;7.98;58.79;99759.13;4351859;32;35016;-68
2022/12/30 04:46:07;;;;;;;;;;;;;;;8.22;58.57;99748.69;4355672;32;34352;-68
2022/12/30 04:48:34;;;;;;;;;;;;;;;7.87;59.48;99758.97;4355785;32;34572;-67
2022/12/30 04:51:02;;;;;;;;;;;;;;;8.84;56.82;99761.53;4357083;32;34608;-70
2022/12/30 04:53:29;;;;;;;;;;;;;;;9.49;54.36;99758.81;4357637;32;33856;-68
2022/12/30 04:55:57;;;;;;;;;;;;;;;9.54;54.52;99756.69;4353896;32;34151;-67
2022/12/30 04:58:24;;;;;;;;;;;;;;;9.70;54.10;99751.09;4353061;32;34605;-67
2022/12/30 05:00:52;;;;;;;;;;;;;;;9.70;54.28;99761.78;4350348;32;33372;-68
2022/12/30 05:03:20;;;;;;;;;;;;;;;9.18;55.36;99756.53;4356891;32;34945;-69
2022/12/30 05:05:47;;;;;;;;;;;;;;;9.62;54.28;99750.78;4358110;32;34858;-68
2022/12/30 05:08:14;;;;;;;;;;;;;;;9.84;53.48;99744.75;4356861;32;34556;-68
2022/12/30 05:10:42;;;;;;;;;;;;;;;9.92;53.13;99749.53;4354644;32;33601;-69
2022/12/30 05:13:09;;;;;;;;;;;;;;;10.16;52.41;99747.78;4344503;32;32889;-68
2022/12/30 05:15:36;;;;;;;;;;;;;;;10.11;52.36;99746.41;4353526;32;33201;-69
2022/12/30 05:18:04;;;;;;;;;;;;;;;10.26;51.65;99751.53;4357379;32;34417;-68
2022/12/30 05:20:31;;;;;;;;;;;;;;;10.34;50.99;99753.66;4353963;32;33561;-68
2022/12/30 05:22:58;;;;;;;;;;;;;;;10.06;51.37;99765.47;4357302;32;34011;-69
2022/12/30 05:28:11;;;;;;;;;;;;;;;10.22;51.04;99775.91;4354719;32;34279;-67
2022/12/30 05:30:39;;;;;;;;;;;;;;;10.27;50.75;99781.78;4355021;32;33653;-69
2022/12/30 05:33:06;;;;;;;;;;;;;;;10.29;50.29;99779.03;4353030;32;33879;-68
2022/12/30 05:35:33;;;;;;;;;;;;;;;10.18;50.44;99775.28;4357270;32;34985;-71
2022/12/30 05:38:01;;;;;;;;;;;;;;;10.45;49.62;99768.91;4352365;32;34645;-70
2022/12/30 05:40:28;;;;;;;;;;;;;;;10.39;49.37;99764.84;4344005;32;34464;-68
2022/12/30 05:42:55;;;;;;;;;;;;;;;10.52;48.62;99769.31;4349051;32;34295;-67
2022/12/30 05:45:22;;;;;;;;;;;;;;;10.06;49.94;99770.81;4355537;32;35508;-68
2022/12/30 05:47:50;;;;;;;;;;;;;;;9.97;50.39;99769.66;4350665;32;34415;-67
2022/12/30 05:50:17;;;;;;;;;;;;;;;10.28;49.72;99783.53;4354993;32;33492;-70
2022/12/30 05:52:45;;;;;;;;;;;;;;;10.29;49.68;99779.87;4346315;32;32944;-67
2022/12/30 05:55:13;;;;;;;;;;;;;;;10.54;48.58;99788.78;4357684;32;34756;-65
2022/12/30 05:57:40;;;;;;;;;;;;;;;10.38;49.10;99787.22;4351875;32;35328;-68
2022/12/30 06:00:08;;;;;;;;;;;;;;;10.18;49.71;99787.81;4354744;32;33185;-70
2022/12/30 06:02:35;;;;;;;;;;;;;;;10.52;48.41;99788.03;4353066;32;34012;-69
2022/12/30 06:05:07;;;;;;;;;;;;;;;10.51;48.44;99789.00;4356325;32;32491;-70
2022/12/30 06:07:34;;;;;;;;;;;;;;;10.44;48.98;99793.97;4359673;32;34448;-70
2022/12/30 06:10:02;;;;;;;;;;;;;;;10.24;49.79;99792.69;4360768;32;33614;-70
2022/12/30 06:12:30;;;;;;;;;;;;;;;10.36;49.61;99796.31;4360863;32;33952;-70
2022/12/30 06:14:57;;;;;;;;;;;;;;;10.20;50.02;99807.25;4357360;32;34214;-68
2022/12/30 06:17:24;;;;;;;;;;;;;;;10.37;49.52;99804.25;4359095;32;35063;-70
2022/12/30 06:19:51;;;;;;;;;;;;;;;10.30;49.93;99807.47;4358539;32;34150;-71
2022/12/30 06:22:19;;;;;;;;;;;;;;;9.97;51.05;99804.41;4357883;32;34104;-70
2022/12/30 06:24:49;;;;;;;;;;;;;;;10.21;50.84;99809.84;4357032;32;33180;-69
2022/12/30 06:27:16;;;;;;;;;;;;;;;10.30;50.55;99813.66;4356752;32;33304;-69
2022/12/30 06:29:43;;;;;;;;;;;;;;;10.30;50.39;99813.66;4358253;32;33624;-68
2022/12/30 06:32:10;;;;;;;;;;;;;;;10.32;50.41;99813.59;4360006;32;33002;-69
2022/12/30 06:34:38;;;;;;;;;;;;;;;10.41;50.19;99811.09;4358080;32;34087;-68
2022/12/30 06:37:05;;;;;;;;;;;;;;;9.65;52.64;99820.03;4359430;32;33116;-69
2022/12/30 06:39:32;;;;;;;;;;;;;;;10.03;51.10;99822.69;4357745;32;32821;-66
2022/12/30 06:42:00;;;;;;;;;;;;;;;9.45;53.02;99836.62;4357167;32;33919;-68
2022/12/30 06:44:27;;;;;;;;;;;;;;;10.08;51.37;99821.50;4358136;32;35538;-70
2022/12/30 06:46:55;;;;;;;;;;;;;;;10.18;51.07;99819.91;4358210;32;34641;-70
2022/12/30 06:49:22;;;;;;;;;;;;;;;10.06;51.41;99826.13;4357908;32;32161;-67
2022/12/30 06:51:49;;;;;;;;;;;;;;;10.15;51.45;99825.47;4360359;32;36330;-69
2022/12/30 06:54:16;;;;;;;;;;;;;;;9.91;51.98;99826.22;4360474;32;34125;-67
2022/12/30 06:56:44;;;;;;;;;;;;;;;9.98;51.71;99821.31;4357437;32;34094;-68
2022/12/30 06:59:11;;;;;;;;;;;;;;;10.32;50.87;99825.13;4359793;32;33311;-68
2022/12/30 07:01:38;;;;;;;;;;;;;;;10.42;50.47;99826.16;4353916;32;32953;-67
2022/12/30 07:04:06;;;;;;;;;;;;;;;9.81;52.17;99819.84;4352304;32;34389;-69
2022/12/30 07:06:33;;;;;;;;;;;;;;;9.89;52.34;99836.19;4348801;32;33860;-68
2022/12/30 07:09:01;;;;;;;;;;;;;;;8.73;55.10;99839.66;4359079;32;32951;-71
2022/12/30 07:11:28;;;;;;;;;;;;;;;9.76;52.92;99851.41;4360388;32;33945;-70
2022/12/30 07:13:55;;;;;;;;;;;;;;;10.02;51.98;99853.09;4356418;32;34315;-68
2022/12/30 07:16:23;;;;;;;;;;;;;;;9.62;53.41;99860.34;4353116;32;34283;-68
2022/12/30 07:18:52;;;;;;;;;;;;;;;9.54;53.41;99855.53;4347766;33;33254;-67
2022/12/30 07:21:19;;;;;;;;;;;;;;;9.71;52.94;99862.38;4356946;32;34149;-68
2022/12/30 07:23:47;;;;;;;;;;;;;;;9.68;53.32;99867.09;4363009;32;35046;-67
2022/12/30 07:26:14;;;;;;;;;;;;;;;9.98;52.47;99872.09;4360875;32;34843;-67
2022/12/30 07:28:41;;;;;;;;;;;;;;;9.93;52.57;99872.44;4362665;32;33857;-68
2022/12/30 07:31:09;;;;;;;;;;;;;;;9.78;52.71;99882.38;4363903;32;32835;-68
2022/12/30 07:33:36;;;;;;;;;;;;;;;9.82;53.22;99887.50;4347756;33;33118;-68
2022/12/30 07:36:03;;;;;;;;;;;;;;;9.72;53.07;99882.78;4352204;32;34769;-67
2022/12/30 07:38:31;;;;;;;;;;;;;;;9.63;53.45;99886.13;4361785;32;33749;-69
2022/12/30 07:40:58;;;;;;;;;;;;;;;9.85;53.13;99884.63;4361259;32;33872;-67
2022/12/30 07:43:26;;;;;;;;;;;;;;;9.73;53.65;99883.69;4361712;32;35544;-67
2022/12/30 07:45:53;;;;;;;;;;;;;;;9.89;53.15;99883.47;4361890;32;34276;-70
2022/12/30 07:48:20;;;;;;;;;;;;;;;9.66;53.95;99893.06;4361849;32;33747;-68
2022/12/30 07:50:47;;;;;;;;;;;;;;;9.90;53.23;99902.06;4363267;32;34242;-69
2022/12/30 07:53:15;;;;;;;;;;;;;;;9.55;54.16;99891.97;4350025;32;34176;-70
2022/12/30 07:55:42;;;;;;;;;;;;;;;10.03;53.05;99892.22;4354838;32;34312;-69
2022/12/30 07:58:09;;;;;;;;;;;;;;;10.30;52.22;99898.44;4359868;32;32377;-68
2022/12/30 08:00:37;;;;;;;;;;;;;;;10.21;52.41;99902.59;4361054;32;33902;-69
2022/12/30 08:03:04;;;;;;;;;;;;;;;10.22;52.21;99902.47;4361058;32;33394;-69
2022/12/30 08:05:32;;;;;;;;;;;;;;;10.25;52.34;99912.13;4362513;32;32916;-66
2022/12/30 08:07:59;;;;;;;;;;;;;;;10.17;52.60;99909.13;4359913;32;34506;-67
2022/12/30 08:10:26;;;;;;;;;;;;;;;10.22;52.62;99910.50;4359194;32;34163;-67
2022/12/30 08:12:53;;;;;;;;;;;;;;;9.96;53.55;99914.16;4359838;32;34845;-68
2022/12/30 08:15:21;;;;;;;;;;;;;;;10.29;52.66;99918.13;4361861;32;35406;-68
2022/12/30 08:17:48;;;;;;;;;;;;;;;10.33;52.58;99919.63;4362240;32;33370;-68
2022/12/30 08:20:16;;;;;;;;;;;;;;;10.37;52.30;99916.63;4349871;32;33842;-69
2022/12/30 08:22:43;;;;;;;;;;;;;;;10.28;52.68;99913.75;4357308;32;34875;-68
2022/12/30 08:25:10;;;;;;;;;;;;;;;10.26;52.43;99919.19;4362765;32;33973;-67
2022/12/30 08:27:37;;;;;;;;;;;;;;;10.09;53.07;99924.84;4355871;32;33612;-67
2022/12/30 08:30:05;;;;;;;;;;;;;;;10.26;52.40;99916.53;4360593;32;33353;-66
2022/12/30 08:32:32;;;;;;;;;;;;;;;10.00;53.17;99919.19;4357055;32;34184;-69
2022/12/30 08:35:00;;;;;;;;;;;;;;;10.33;52.38;99924.97;4349290;32;34159;-69
2022/12/30 08:37:27;;;;;;;;;;;;;;;10.41;52.29;99926.16;4358540;32;33369;-66
2022/12/30 08:39:54;;;;;;;;;;;;;;;10.01;53.22;99926.22;4354488;32;33984;-69
2022/12/30 08:42:22;;;;;;;;;;;;;;;10.21;53.03;99932.03;4359717;32;33829;-67
2022/12/30 08:44:49;;;;;;;;;;;;;;;10.15;53.02;99933.31;4348244;32;35011;-70
2022/12/30 08:47:16;;;;;;;;;;;;;;;10.58;51.87;99934.78;4349553;32;33375;-67
2022/12/30 08:49:44;;;;;;;;;;;;;;;10.21;53.08;99932.87;4362277;32;34304;-67
2022/12/30 08:52:11;;;;;;;;;;;;;;;10.56;52.03;99934.91;4359959;32;33169;-69
2022/12/30 08:54:39;;;;;;;;;;;;;;;10.55;52.18;99937.69;4361898;32;34588;-68
2022/12/30 08:57:07;;;;;;;;;;;;;;;8.75;56.84;99944.47;4361989;32;34219;-66
2022/12/30 08:59:34;;;;;;;;;;;;;;;8.77;57.03;99939.03;4350943;32;34267;-69
2022/12/30 09:02:01;;;;;;;;;;;;;;;10.17;53.22;99944.72;4352346;32;34467;-68
2022/12/30 09:04:29;;;;;;;;;;;;;;;10.23;53.17;99938.97;4357275;32;35806;-69
2022/12/30 09:06:56;;;;;;;;;;;;;;;10.37;52.67;99943.38;4358565;32;32232;-66
2022/12/30 09:09:24;;;;;;;;;;;;;;;10.25;53.14;99944.22;4359725;32;35584;-68
2022/12/30 09:11:51;;;;;;;;;;;;;;;10.05;53.39;99948.28;4354728;32;34300;-67
2022/12/30 09:14:18;;;;;;;;;;;;;;;9.79;54.20;99953.63;4360477;32;34807;-68
2022/12/30 09:16:46;;;;;;;;;;;;;;;9.78;54.31;99962.56;4360242;32;33197;-67
2022/12/30 09:19:13;;;;;;;;;;;;;;;10.24;53.09;99959.41;4359966;32;32663;-69
2022/12/30 09:21:47;;;;;;;;;;;;;;;9.53;54.94;99950.03;4361958;32;33654;-68
2022/12/30 09:24:14;;;;;;;;;;;;;;;9.60;55.03;99957.59;4355400;32;34282;-69
2022/12/30 09:26:42;;;;;;;;;;;;;;;9.93;54.20;99963.34;4353102;32;33131;-68
2022/12/30 09:29:09;;;;;;;;;;;;;;;10.28;53.01;99956.56;4358127;32;33805;-67
2022/12/30 09:31:36;;;;;;;;;;;;;;;9.99;53.72;99959.41;4360300;32;34295;-67
2022/12/30 09:34:05;;;;;;;;;;;;;;;10.34;52.95;99948.97;4359432;32;33125;-68
2022/12/30 09:36:32;;;;;;;;;;;;;;;10.36;52.97;99957.72;4358931;32;33765;-68
2022/12/30 09:39:00;;;;;;;;;;;;;;;10.40;52.82;99939.63;4359499;32;35265;-66
2022/12/30 09:44:36;;;;;;;;;;;;;;;9.49;55.08;99936.97;4359862;32;34047;-69
2022/12/30 09:47:12;;;;;;;;;;;;;;;10.06;53.77;99941.97;4356643;32;33461;-67
2022/12/30 09:49:41;;;;;;;;;;;;;;;9.93;54.25;99955.31;4357200;32;33762;-68
2022/12/30 09:52:15;;;;;;;;;;;;;;;9.92;54.35;99955.41;4357536;32;32643;-67
2022/12/30 09:54:44;;;;;;;;;;;;;;;9.91;54.13;99949.22;4345159;32;35677;-67
2022/12/30 10:00:02;;;;;;;;;;;;;;;8.72;57.38;99944.66;4355914;32;35204;-67
2022/12/30 10:02:57;;;;;;;;;;;;;;;9.53;55.98;99946.47;4359083;32;34296;-70
2022/12/30 10:05:33;;;;;;;;;;;;;;;9.82;55.08;99954.34;4359370;32;34277;-67
2022/12/30 10:08:03;;;;;;;;;;;;;;;9.80;54.23;99947.28;4360568;32;33714;-68
2022/12/30 10:10:35;;;;;;;;;;;;;;;10.06;54.04;99950.00;4360897;32;34153;-67
2022/12/30 10:13:02;;;;;;;;;;;;;;;8.82;58.12;99944.94;4345907;32;34781;-69
2022/12/30 10:15:34;;;;;;;;;;;;;;;9.18;57.01;99947.03;4356125;32;33211;-67
2022/12/30 10:18:21;;;;;;;;;;;;;;;9.73;54.71;99953.19;4356281;32;34677;-69
2022/12/30 10:20:48;;;;;;;;;;;;;;;10.04;54.29;99960.78;4359811;32;34964;-68
2022/12/30 10:23:35;;;;;;;;;;;;;;;10.29;53.72;99960.94;4358022;32;35389;-69
2022/12/30 10:26:06;;;;;;;;;;;;;;;10.27;53.88;99950.31;4360950;32;34550;-67
2022/12/30 10:28:37;;;;;;;;;;;;;;;10.65;52.60;99958.31;4347115;32;33710;-69
2022/12/30 10:31:07;;;;;;;;;;;;;;;10.39;53.17;99952.16;4346532;32;32680;-68
2022/12/30 10:33:35;;;;;;;;;;;;;;;10.67;52.76;99955.53;4345287;32;33293;-70
2022/12/30 10:36:10;;;;;;;;;;;;;;;10.66;52.43;99960.03;4358960;32;34467;-68
2022/12/30 10:38:38;;;;;;;;;;;;;;;11.05;51.76;99971.50;4346846;32;33266;-70
2022/12/30 10:41:21;;;;;;;;;;;;;;;11.34;51.07;99960.47;4347972;32;35305;-69
2022/12/30 10:44:03;;;;;;;;;;;;;;;11.49;50.53;99961.13;4359884;32;35329;-66
2022/12/30 10:46:36;;;;;;;;;;;;;;;11.47;50.42;99957.72;4360805;32;34490;-69
2022/12/30 10:49:10;;;;;;;;;;;;;;;11.51;50.38;99956.53;4344838;32;32027;-67
2022/12/30 10:51:37;;;;;;;;;;;;;;;11.65;49.86;99959.00;4360392;32;33473;-67
2022/12/30 10:54:05;;;;;;;;;;;;;;;11.65;49.87;99946.47;4361397;32;32918;-68
2022/12/30 10:56:32;;;;;;;;;;;;;;;11.71;49.53;99963.06;4357968;32;33774;-70
2022/12/30 10:59:00;;;;;;;;;;;;;;;11.42;50.50;99948.19;4356465;32;33487;-68
2022/12/30 11:01:32;;;;;;;;;;;;;;;11.47;50.62;99939.81;4352667;32;32656;-69
2022/12/30 11:04:00;;;;;;;;;;;;;;;11.78;49.94;99937.47;4337018;32;35242;-67
2022/12/30 11:06:32;;;;;;;;;;;;;;;11.83;49.50;99943.34;4350567;32;34494;-69
2022/12/30 11:09:11;;;;;;;;;;;;;;;11.88;49.43;99947.44;4357646;32;32998;-71
2022/12/30 11:14:55;;;;;;;;;;;;;;;11.76;50.04;99934.91;4358166;32;34319;-71
2022/12/30 11:17:32;;;;;;;;;;;;;;;11.96;49.67;99941.47;4355827;32;34278;-69
2022/12/30 11:20:04;;;;;;;;;;;;;;;12.01;49.48;99950.00;4348606;32;34888;-69
2022/12/30 11:22:32;;;;;;;;;;;;;;;11.98;49.62;99949.41;4353275;32;34124;-67
2022/12/30 11:25:21;;;;;;;;;;;;;;;12.09;49.31;99946.72;4348965;32;35164;-68
2022/12/30 11:27:50;;;;;;;;;;;;;;;12.25;48.89;99946.38;4348769;32;34163;-67
2022/12/30 11:30:25;;;;;;;;;;;;;;;12.29;48.99;99945.16;4354718;32;32035;-67
2022/12/30 11:32:53;;;;;;;;;;;;;;;11.96;49.74;99940.59;4342494;32;34349;-67
2022/12/30 11:35:34;;;;;;;;;;;;;;;12.11;49.39;99944.78;4370286;32;34425;-67
2022/12/30 11:38:02;;;;;;;;;;;;;;;12.18;49.38;99951.38;4361693;32;34741;-67
2022/12/30 11:40:32;;;;;;;;;;;;;;;12.25;49.35;99954.44;4345493;32;32660;-69
2022/12/30 11:43:13;;;;;;;;;;;;;;;12.33;48.83;99963.59;4355601;32;34065;-67
2022/12/30 11:45:47;;;;;;;;;;;;;;;12.40;48.52;99968.50;4361837;32;33212;-68
2022/12/30 11:48:32;;;;;;;;;;;;;;;12.38;48.44;99957.00;4359906;32;34218;-69
2022/12/30 11:51:01;;;;;;;;;;;;;;;12.24;48.99;99966.16;4369409;32;34760;-68
2022/12/30 11:53:30;;;;;;;;;;;;;;;12.28;48.97;99967.62;4346026;32;32842;-69
2022/12/30 11:55:57;;;;;;;;;;;;;;;12.11;49.70;99971.63;4358790;32;34186;-69
2022/12/30 11:58:25;;;;;;;;;;;;;;;12.06;49.88;99977.31;4345623;32;34820;-68
2022/12/30 12:00:57;;;;;;;;;;;;;;;12.12;49.82;99982.22;4359898;32;33237;-68
2022/12/30 12:03:25;;;;;;;;;;;;;;;12.10;50.05;99977.94;4352510;32;32805;-68
2022/12/30 12:06:02;;;;;;;;;;;;;;;12.11;50.26;99977.00;4356442;32;34137;-68
2022/12/30 12:08:31;;;;;;;;;;;;;;;12.14;49.93;99982.12;4357336;32;34185;-70
2022/12/30 12:11:00;;;;;;;;;;;;;;;12.01;49.84;99976.84;4336027;32;33521;-67
2022/12/30 12:13:33;;;;;;;;;;;;;;;11.92;50.25;99982.91;4348992;32;34171;-71
2022/12/30 12:16:00;;;;;;;;;;;;;;;11.98;50.16;99984.28;4358774;32;33026;-68
2022/12/30 12:18:28;;;;;;;;;;;;;;;11.75;51.14;99984.16;4348211;32;34473;-68
2022/12/30 12:20:55;;;;;;;;;;;;;;;12.05;49.96;99983.66;4360933;32;33409;-68
2022/12/30 12:23:32;;;;;;;;;;;;;;;12.10;49.80;99991.34;4347018;32;33706;-67
2022/12/30 12:26:18;;;;;;;;;;;;;;;11.86;50.42;99992.28;4361292;32;32997;-67
2022/12/30 12:28:45;;;;;;;;;;;;;;;11.94;50.13;99985.47;4361641;32;35577;-67
2022/12/30 12:31:19;;;;;;;;;;;;;;;11.81;50.48;99986.37;4358541;32;34644;-72
2022/12/30 12:33:56;;;;;;;;;;;;;;;11.40;52.03;99993.03;4347707;32;34340;-69
2022/12/30 12:36:36;;;;;;;;;;;;;;;11.42;52.02;99979.50;4357467;32;34326;-70
2022/12/30 12:39:10;;;;;;;;;;;;;;;11.34;52.22;99979.22;4357423;32;35521;-69
2022/12/30 12:41:56;;;;;;;;;;;;;;;11.68;51.34;99979.38;4343987;32;34706;-68
2022/12/30 12:44:31;;;;;;;;;;;;;;;11.47;51.71;99982.69;4359266;32;34280;-69
2022/12/30 12:47:06;;;;;;;;;;;;;;;11.59;51.61;99975.59;4345236;32;34458;-71
2022/12/30 12:49:33;;;;;;;;;;;;;;;11.81;51.21;99964.94;4347410;32;33632;-70
2022/12/30 12:52:01;;;;;;;;;;;;;;;11.81;51.69;99977.47;4355200;32;33266;-68
2022/12/30 12:54:37;;;;;;;;;;;;;;;11.95;50.78;99977.31;4357170;32;35293;-70
2022/12/30 12:57:35;;;;;;;;;;;;;;;12.08;50.49;99978.06;4356141;32;35356;-67
2022/12/30 13:00:09;;;;;;;;;;;;;;;12.29;50.04;99994.31;4358887;32;34130;-69
2022/12/30 13:02:40;;;;;;;;;;;;;;;12.39;49.80;99990.91;4346913;32;33555;-68
2022/12/30 13:05:36;;;;;;;;;;;;;;;12.09;50.93;99993.19;4347667;32;33941;-68
2022/12/30 13:08:03;;;;;;;;;;;;;;;12.30;50.50;99996.03;4358595;32;34216;-70
2022/12/30 13:10:56;;;;;;;;;;;;;;;12.12;51.13;99995.63;4345673;32;33021;-69
2022/12/30 13:13:53;;;;;;;;;;;;;;;12.25;50.80;99987.50;4357176;32;32048;-68
2022/12/30 13:16:21;;;;;;;;;;;;;;;12.20;50.64;99997.75;4344348;32;34443;-71
2022/12/30 13:18:49;;;;;;;;;;;;;;;11.69;51.97;100006.09;4346759;32;35220;-72
2022/12/30 13:21:18;;;;;;;;;;;;;;;10.66;54.87;99999.34;4347039;32;35209;-68
2022/12/30 13:23:47;;;;;;;;;;;;;;;11.47;52.87;100009.50;4346552;32;33582;-68
2022/12/30 13:26:15;;;;;;;;;;;;;;;11.29;53.47;100010.84;4344521;32;32910;-69
2022/12/30 13:28:43;;;;;;;;;;;;;;;11.42;53.00;100003.63;4348677;32;33887;-70
2022/12/30 13:31:20;;;;;;;;;;;;;;;11.69;52.03;100011.44;4344626;32;32894;-70
2022/12/30 13:33:57;;;;;;;;;;;;;;;11.71;52.12;100011.31;4358173;32;33118;-68
2022/12/30 13:36:31;;;;;;;;;;;;;;;11.55;52.51;100014.28;4358521;32;34435;-70
2022/12/30 13:39:04;;;;;;;;;;;;;;;11.51;52.35;100018.16;4359390;32;33188;-69
2022/12/30 13:41:34;;;;;;;;;;;;;;;11.07;53.95;100025.81;4345220;32;32957;-67
2022/12/30 13:44:02;;;;;;;;;;;;;;;11.43;53.00;100027.66;4357161;32;33825;-69
2022/12/30 13:46:29;;;;;;;;;;;;;;;11.37;53.09;100029.91;4356717;32;34281;-67
2022/12/30 13:49:00;;;;;;;;;;;;;;;11.22;53.45;100029.22;4356980;32;33693;-69
2022/12/30 13:51:28;;;;;;;;;;;;;;;11.35;53.12;100030.03;4359062;32;34230;-67
2022/12/30 13:53:56;;;;;;;;;;;;;;;11.30;53.35;100026.84;4346807;32;32223;-67
2022/12/30 13:56:34;;;;;;;;;;;;;;;11.46;53.18;100028.38;4358566;32;34972;-68
2022/12/30 13:59:01;;;;;;;;;;;;;;;11.53;53.06;100021.59;4356233;32;34496;-67
2022/12/30 14:01:30;;;;;;;;;;;;;;;11.50;53.16;100025.38;4356939;32;35521;-67